sensor_id;sensor_type;location;lat;lon;timestamp;P1;durP1;ratioP1;P2;durP2;ratioP2
8632;SDS011;4354;49.832;10.746;2023-07-02T00:00:00;5.40;;;3.75;;
8632;SDS011;4354;49.832;10.746;2023-07-02T00:02:27;4.13;;;3.60;;
8632;SDS011;4354;49.832;10.746;2023-07-02T00:04:54;4.32;;;3.92;;
8632;SDS011;4354;49.832;10.746;2023-07-02T00:07:21;3.60;;;3.00;;
8632;SDS011;4354;49.832;10.746;2023-07-02T00:09:48;4.47;;;3.60;;
8632;SDS011;4354;49.832;10.746;2023-07-02T00:12:15;6.00;;;3.20;;
8632;SDS011;4354;49.832;10.746;2023-07-02T00:14:42;5.00;;;3.38;;
8632;SDS011;4354;49.832;10.746;2023-07-02T00:17:09;3.70;;;3.40;;
8632;SDS011;4354;49.832;10.746;2023-07-02T00:19:39;5.90;;;3.33;;
8632;SDS011;4354;49.832;10.746;2023-07-02T00:22:08;3.67;;;3.22;;
8632;SDS011;4354;49.832;10.746;2023-07-02T00:24:36;5.43;;;3.38;;
8632;SDS011;4354;49.832;10.746;2023-07-02T00:27:03;3.80;;;3.45;;
8632;SDS011;4354;49.832;10.746;2023-07-02T00:29:31;3.97;;;3.58;;
8632;SDS011;4354;49.832;10.746;2023-07-02T00:31:57;4.30;;;3.85;;
8632;SDS011;4354;49.832;10.746;2023-07-02T00:34:24;4.90;;;3.90;;
8632;SDS011;4354;49.832;10.746;2023-07-02T00:36:51;4.90;;;3.53;;
8632;SDS011;4354;49.832;10.746;2023-07-02T00:39:18;4.95;;;3.80;;
8632;SDS011;4354;49.832;10.746;2023-07-02T00:41:45;4.63;;;4.03;;
8632;SDS011;4354;49.832;10.746;2023-07-02T00:44:15;5.75;;;4.57;;
8632;SDS011;4354;49.832;10.746;2023-07-02T00:46:41;5.45;;;4.88;;
8632;SDS011;4354;49.832;10.746;2023-07-02T00:49:08;6.85;;;4.22;;
8632;SDS011;4354;49.832;10.746;2023-07-02T00:51:36;5.30;;;4.80;;
8632;SDS011;4354;49.832;10.746;2023-07-02T00:54:03;5.07;;;4.68;;
8632;SDS011;4354;49.832;10.746;2023-07-02T00:56:31;4.40;;;4.10;;
8632;SDS011;4354;49.832;10.746;2023-07-02T00:58:57;5.45;;;4.72;;
8632;SDS011;4354;49.832;10.746;2023-07-02T01:01:25;5.07;;;4.57;;
8632;SDS011;4354;49.832;10.746;2023-07-02T01:04:01;7.20;;;4.80;;
8632;SDS011;4354;49.832;10.746;2023-07-02T01:06:31;5.50;;;4.97;;
8632;SDS011;4354;49.832;10.746;2023-07-02T01:09:00;5.95;;;5.45;;
8632;SDS011;4354;49.832;10.746;2023-07-02T01:11:38;5.85;;;5.25;;
8632;SDS011;4354;49.832;10.746;2023-07-02T01:16:37;6.10;;;5.43;;
8632;SDS011;4354;49.832;10.746;2023-07-02T01:19:14;6.25;;;5.22;;
8632;SDS011;4354;49.832;10.746;2023-07-02T01:21:46;6.22;;;5.07;;
8632;SDS011;4354;49.832;10.746;2023-07-02T01:24:15;6.25;;;5.43;;
8632;SDS011;4354;49.832;10.746;2023-07-02T01:26:43;5.88;;;5.35;;
8632;SDS011;4354;49.832;10.746;2023-07-02T01:29:20;6.37;;;5.77;;
8632;SDS011;4354;49.832;10.746;2023-07-02T01:31:47;5.53;;;5.03;;
8632;SDS011;4354;49.832;10.746;2023-07-02T01:34:14;5.15;;;4.70;;
8632;SDS011;4354;49.832;10.746;2023-07-02T01:36:41;8.53;;;5.90;;
8632;SDS011;4354;49.832;10.746;2023-07-02T01:39:08;6.18;;;5.10;;
8632;SDS011;4354;49.832;10.746;2023-07-02T01:42:09;7.00;;;5.50;;
8632;SDS011;4354;49.832;10.746;2023-07-02T01:44:34;6.10;;;5.50;;
8632;SDS011;4354;49.832;10.746;2023-07-02T01:47:01;5.55;;;5.05;;
8632;SDS011;4354;49.832;10.746;2023-07-02T01:49:28;9.57;;;5.43;;
8632;SDS011;4354;49.832;10.746;2023-07-02T01:51:55;6.00;;;5.45;;
8632;SDS011;4354;49.832;10.746;2023-07-02T01:54:26;6.53;;;5.30;;
8632;SDS011;4354;49.832;10.746;2023-07-02T01:56:54;5.80;;;5.23;;
8632;SDS011;4354;49.832;10.746;2023-07-02T01:59:21;12.30;;;5.10;;
8632;SDS011;4354;49.832;10.746;2023-07-02T02:01:48;7.18;;;5.22;;
8632;SDS011;4354;49.832;10.746;2023-07-02T02:04:16;5.07;;;4.57;;
8632;SDS011;4354;49.832;10.746;2023-07-02T02:06:42;6.43;;;5.37;;
8632;SDS011;4354;49.832;10.746;2023-07-02T02:09:09;5.60;;;5.10;;
8632;SDS011;4354;49.832;10.746;2023-07-02T02:11:38;5.23;;;4.73;;
8632;SDS011;4354;49.832;10.746;2023-07-02T02:14:06;5.50;;;5.00;;
8632;SDS011;4354;49.832;10.746;2023-07-02T02:16:33;7.50;;;5.00;;
8632;SDS011;4354;49.832;10.746;2023-07-02T02:19:00;5.73;;;5.23;;
8632;SDS011;4354;49.832;10.746;2023-07-02T02:21:27;6.03;;;5.43;;
8632;SDS011;4354;49.832;10.746;2023-07-02T02:23:54;8.43;;;5.30;;
8632;SDS011;4354;49.832;10.746;2023-07-02T02:26:21;6.13;;;5.50;;
8632;SDS011;4354;49.832;10.746;2023-07-02T02:28:49;5.70;;;5.10;;
8632;SDS011;4354;49.832;10.746;2023-07-02T02:31:16;5.80;;;5.30;;
8632;SDS011;4354;49.832;10.746;2023-07-02T02:33:43;7.80;;;5.30;;
8632;SDS011;4354;49.832;10.746;2023-07-02T02:36:10;5.87;;;5.27;;
8632;SDS011;4354;49.832;10.746;2023-07-02T02:38:37;7.00;;;5.20;;
8632;SDS011;4354;49.832;10.746;2023-07-02T02:41:04;7.70;;;4.83;;
8632;SDS011;4354;49.832;10.746;2023-07-02T02:43:31;6.17;;;5.23;;
8632;SDS011;4354;49.832;10.746;2023-07-02T02:45:57;7.43;;;5.07;;
8632;SDS011;4354;49.832;10.746;2023-07-02T02:48:24;5.90;;;5.17;;
8632;SDS011;4354;49.832;10.746;2023-07-02T02:50:51;7.60;;;6.77;;
8632;SDS011;4354;49.832;10.746;2023-07-02T02:53:18;8.70;;;8.00;;
8632;SDS011;4354;49.832;10.746;2023-07-02T02:55:46;7.90;;;7.00;;
8632;SDS011;4354;49.832;10.746;2023-07-02T02:58:13;7.33;;;6.60;;
8632;SDS011;4354;49.832;10.746;2023-07-02T03:00:39;6.97;;;5.80;;
8632;SDS011;4354;49.832;10.746;2023-07-02T03:03:09;7.27;;;5.70;;
8632;SDS011;4354;49.832;10.746;2023-07-02T03:05:36;10.13;;;5.73;;
8632;SDS011;4354;49.832;10.746;2023-07-02T03:08:02;5.93;;;5.10;;
8632;SDS011;4354;49.832;10.746;2023-07-02T03:10:29;5.70;;;5.07;;
8632;SDS011;4354;49.832;10.746;2023-07-02T03:12:56;6.00;;;5.50;;
8632;SDS011;4354;49.832;10.746;2023-07-02T03:15:23;6.90;;;5.10;;
8632;SDS011;4354;49.832;10.746;2023-07-02T03:17:50;5.77;;;5.17;;
8632;SDS011;4354;49.832;10.746;2023-07-02T03:20:16;6.90;;;5.20;;
8632;SDS011;4354;49.832;10.746;2023-07-02T03:22:43;7.53;;;5.00;;
8632;SDS011;4354;49.832;10.746;2023-07-02T03:25:10;6.77;;;5.50;;
8632;SDS011;4354;49.832;10.746;2023-07-02T03:27:37;5.40;;;4.90;;
8632;SDS011;4354;49.832;10.746;2023-07-02T03:30:04;5.87;;;4.57;;
8632;SDS011;4354;49.832;10.746;2023-07-02T03:32:31;5.47;;;4.90;;
8632;SDS011;4354;49.832;10.746;2023-07-02T03:34:58;6.33;;;4.77;;
8632;SDS011;4354;49.832;10.746;2023-07-02T03:37:25;4.93;;;4.30;;
8632;SDS011;4354;49.832;10.746;2023-07-02T03:39:52;5.17;;;4.07;;
8632;SDS011;4354;49.832;10.746;2023-07-02T03:42:18;4.87;;;3.70;;
8632;SDS011;4354;49.832;10.746;2023-07-02T03:44:45;6.63;;;4.00;;
8632;SDS011;4354;49.832;10.746;2023-07-02T03:47:12;4.60;;;3.63;;
8632;SDS011;4354;49.832;10.746;2023-07-02T03:49:41;5.70;;;3.97;;
8632;SDS011;4354;49.832;10.746;2023-07-02T03:52:08;4.50;;;3.63;;
8632;SDS011;4354;49.832;10.746;2023-07-02T03:54:38;5.87;;;4.00;;
8632;SDS011;4354;49.832;10.746;2023-07-02T03:57:05;5.27;;;3.90;;
8632;SDS011;4354;49.832;10.746;2023-07-02T03:59:32;5.10;;;3.33;;
8632;SDS011;4354;49.832;10.746;2023-07-02T04:01:59;6.73;;;3.20;;
8632;SDS011;4354;49.832;10.746;2023-07-02T04:04:26;3.67;;;3.37;;
8632;SDS011;4354;49.832;10.746;2023-07-02T04:06:57;5.53;;;3.17;;
8632;SDS011;4354;49.832;10.746;2023-07-02T04:09:23;4.47;;;3.50;;
8632;SDS011;4354;49.832;10.746;2023-07-02T04:11:50;6.10;;;3.37;;
8632;SDS011;4354;49.832;10.746;2023-07-02T04:14:17;4.13;;;3.10;;
8632;SDS011;4354;49.832;10.746;2023-07-02T04:16:44;4.70;;;3.27;;
8632;SDS011;4354;49.832;10.746;2023-07-02T04:19:11;3.23;;;2.93;;
8632;SDS011;4354;49.832;10.746;2023-07-02T04:21:39;4.90;;;3.17;;
8632;SDS011;4354;49.832;10.746;2023-07-02T04:24:06;2.73;;;2.53;;
8632;SDS011;4354;49.832;10.746;2023-07-02T04:26:34;5.40;;;3.10;;
8632;SDS011;4354;49.832;10.746;2023-07-02T04:29:22;5.00;;;3.30;;
8632;SDS011;4354;49.832;10.746;2023-07-02T04:31:49;3.70;;;2.77;;
8632;SDS011;4354;49.832;10.746;2023-07-02T04:34:19;4.27;;;3.00;;
8632;SDS011;4354;49.832;10.746;2023-07-02T04:36:48;5.05;;;2.72;;
8632;SDS011;4354;49.832;10.746;2023-07-02T04:39:18;6.03;;;2.90;;
8632;SDS011;4354;49.832;10.746;2023-07-02T04:41:45;3.57;;;3.20;;
8632;SDS011;4354;49.832;10.746;2023-07-02T04:44:12;4.33;;;2.73;;
8632;SDS011;4354;49.832;10.746;2023-07-02T04:46:39;7.53;;;3.23;;
8632;SDS011;4354;49.832;10.746;2023-07-02T04:49:05;3.53;;;2.67;;
8632;SDS011;4354;49.832;10.746;2023-07-02T04:51:32;4.28;;;2.95;;
8632;SDS011;4354;49.832;10.746;2023-07-02T04:53:59;5.45;;;3.30;;
8632;SDS011;4354;49.832;10.746;2023-07-02T04:56:26;8.35;;;3.17;;
8632;SDS011;4354;49.832;10.746;2023-07-02T04:58:53;5.38;;;3.10;;
8632;SDS011;4354;49.832;10.746;2023-07-02T05:01:19;4.22;;;2.72;;
8632;SDS011;4354;49.832;10.746;2023-07-02T05:03:46;5.50;;;3.10;;
8632;SDS011;4354;49.832;10.746;2023-07-02T05:06:13;6.90;;;3.35;;
8632;SDS011;4354;49.832;10.746;2023-07-02T05:08:40;6.05;;;3.13;;
8632;SDS011;4354;49.832;10.746;2023-07-02T05:11:08;4.70;;;3.47;;
8632;SDS011;4354;49.832;10.746;2023-07-02T05:13:36;8.32;;;3.70;;
8632;SDS011;4354;49.832;10.746;2023-07-02T05:16:03;5.13;;;3.08;;
8632;SDS011;4354;49.832;10.746;2023-07-02T05:18:30;5.97;;;4.38;;
8632;SDS011;4354;49.832;10.746;2023-07-02T05:20:57;7.43;;;4.97;;
8632;SDS011;4354;49.832;10.746;2023-07-02T05:23:24;6.97;;;4.28;;
8632;SDS011;4354;49.832;10.746;2023-07-02T05:25:50;9.40;;;4.75;;
8632;SDS011;4354;49.832;10.746;2023-07-02T05:28:17;7.28;;;4.65;;
8632;SDS011;4354;49.832;10.746;2023-07-02T05:30:44;8.60;;;5.35;;
8632;SDS011;4354;49.832;10.746;2023-07-02T05:33:11;9.70;;;5.05;;
8632;SDS011;4354;49.832;10.746;2023-07-02T05:35:39;13.27;;;5.43;;
8632;SDS011;4354;49.832;10.746;2023-07-02T05:38:06;8.68;;;5.05;;
8632;SDS011;4354;49.832;10.746;2023-07-02T05:40:33;8.85;;;5.55;;
8632;SDS011;4354;49.832;10.746;2023-07-02T05:43:00;8.23;;;4.93;;
8632;SDS011;4354;49.832;10.746;2023-07-02T05:45:26;14.30;;;6.25;;
8632;SDS011;4354;49.832;10.746;2023-07-02T05:47:55;6.38;;;5.07;;
8632;SDS011;4354;49.832;10.746;2023-07-02T05:50:21;8.90;;;5.40;;
8632;SDS011;4354;49.832;10.746;2023-07-02T05:52:49;9.50;;;5.70;;
8632;SDS011;4354;49.832;10.746;2023-07-02T05:55:16;9.27;;;5.35;;
8632;SDS011;4354;49.832;10.746;2023-07-02T05:57:43;8.75;;;6.15;;
8632;SDS011;4354;49.832;10.746;2023-07-02T06:00:10;10.15;;;5.00;;
8632;SDS011;4354;49.832;10.746;2023-07-02T06:02:38;7.15;;;5.03;;
8632;SDS011;4354;49.832;10.746;2023-07-02T06:05:05;8.23;;;5.20;;
8632;SDS011;4354;49.832;10.746;2023-07-02T06:07:32;9.75;;;5.55;;
8632;SDS011;4354;49.832;10.746;2023-07-02T06:09:59;8.70;;;5.10;;
8632;SDS011;4354;49.832;10.746;2023-07-02T06:12:26;8.40;;;5.30;;
8632;SDS011;4354;49.832;10.746;2023-07-02T06:14:53;8.13;;;5.25;;
8632;SDS011;4354;49.832;10.746;2023-07-02T06:17:20;8.40;;;5.20;;
8632;SDS011;4354;49.832;10.746;2023-07-02T06:19:49;8.68;;;5.20;;
8632;SDS011;4354;49.832;10.746;2023-07-02T06:22:15;5.85;;;4.82;;
8632;SDS011;4354;49.832;10.746;2023-07-02T06:24:42;9.40;;;5.18;;
8632;SDS011;4354;49.832;10.746;2023-07-02T06:27:09;8.35;;;5.18;;
8632;SDS011;4354;49.832;10.746;2023-07-02T06:29:36;8.23;;;5.15;;
8632;SDS011;4354;49.832;10.746;2023-07-02T06:32:03;8.52;;;5.35;;
8632;SDS011;4354;49.832;10.746;2023-07-02T06:34:30;9.20;;;5.00;;
8632;SDS011;4354;49.832;10.746;2023-07-02T06:36:57;8.27;;;5.78;;
8632;SDS011;4354;49.832;10.746;2023-07-02T06:39:24;8.43;;;5.32;;
8632;SDS011;4354;49.832;10.746;2023-07-02T06:41:50;8.40;;;5.55;;
8632;SDS011;4354;49.832;10.746;2023-07-02T06:44:17;9.55;;;5.30;;
8632;SDS011;4354;49.832;10.746;2023-07-02T06:46:47;6.75;;;5.20;;
8632;SDS011;4354;49.832;10.746;2023-07-02T06:49:14;7.38;;;5.00;;
8632;SDS011;4354;49.832;10.746;2023-07-02T06:51:41;9.95;;;4.90;;
8632;SDS011;4354;49.832;10.746;2023-07-02T06:54:08;8.63;;;5.03;;
8632;SDS011;4354;49.832;10.746;2023-07-02T06:56:35;8.05;;;4.78;;
8632;SDS011;4354;49.832;10.746;2023-07-02T06:59:02;6.53;;;4.57;;
8632;SDS011;4354;49.832;10.746;2023-07-02T07:01:29;5.68;;;4.82;;
8632;SDS011;4354;49.832;10.746;2023-07-02T07:03:56;7.35;;;4.57;;
8632;SDS011;4354;49.832;10.746;2023-07-02T07:06:23;8.05;;;5.22;;
8632;SDS011;4354;49.832;10.746;2023-07-02T07:08:49;7.35;;;4.85;;
8632;SDS011;4354;49.832;10.746;2023-07-02T07:11:17;6.97;;;5.10;;
8632;SDS011;4354;49.832;10.746;2023-07-02T07:13:43;9.93;;;5.15;;
8632;SDS011;4354;49.832;10.746;2023-07-02T07:16:11;8.88;;;5.68;;
8632;SDS011;4354;49.832;10.746;2023-07-02T07:18:38;9.75;;;5.78;;
8632;SDS011;4354;49.832;10.746;2023-07-02T07:21:04;7.85;;;5.78;;
8632;SDS011;4354;49.832;10.746;2023-07-02T07:23:31;9.93;;;7.35;;
8632;SDS011;4354;49.832;10.746;2023-07-02T07:25:58;8.82;;;6.28;;
8632;SDS011;4354;49.832;10.746;2023-07-02T07:28:25;9.88;;;5.78;;
8632;SDS011;4354;49.832;10.746;2023-07-02T07:30:52;10.60;;;5.88;;
8632;SDS011;4354;49.832;10.746;2023-07-02T07:33:19;7.35;;;5.57;;
8632;SDS011;4354;49.832;10.746;2023-07-02T07:35:45;8.60;;;5.97;;
8632;SDS011;4354;49.832;10.746;2023-07-02T07:38:13;8.20;;;6.28;;
8632;SDS011;4354;49.832;10.746;2023-07-02T07:40:42;13.43;;;5.88;;
8632;SDS011;4354;49.832;10.746;2023-07-02T07:43:09;7.38;;;5.32;;
8632;SDS011;4354;49.832;10.746;2023-07-02T07:45:36;7.53;;;5.35;;
8632;SDS011;4354;49.832;10.746;2023-07-02T07:48:07;8.38;;;5.70;;
8632;SDS011;4354;49.832;10.746;2023-07-02T07:50:34;9.70;;;5.78;;
8632;SDS011;4354;49.832;10.746;2023-07-02T07:53:00;7.22;;;5.35;;
8632;SDS011;4354;49.832;10.746;2023-07-02T07:55:27;8.68;;;5.68;;
8632;SDS011;4354;49.832;10.746;2023-07-02T07:57:54;8.18;;;5.22;;
8632;SDS011;4354;49.832;10.746;2023-07-02T08:00:21;6.85;;;5.53;;
8632;SDS011;4354;49.832;10.746;2023-07-02T08:02:50;7.40;;;4.80;;
8632;SDS011;4354;49.832;10.746;2023-07-02T08:05:18;9.10;;;5.68;;
8632;SDS011;4354;49.832;10.746;2023-07-02T08:07:45;6.78;;;5.07;;
8632;SDS011;4354;49.832;10.746;2023-07-02T08:10:12;8.18;;;5.50;;
8632;SDS011;4354;49.832;10.746;2023-07-02T08:12:39;7.60;;;5.32;;
8632;SDS011;4354;49.832;10.746;2023-07-02T08:15:06;7.38;;;5.10;;
8632;SDS011;4354;49.832;10.746;2023-07-02T08:17:33;6.28;;;5.15;;
8632;SDS011;4354;49.832;10.746;2023-07-02T08:20:01;8.70;;;5.10;;
8632;SDS011;4354;49.832;10.746;2023-07-02T08:22:28;5.68;;;4.93;;
8632;SDS011;4354;49.832;10.746;2023-07-02T08:24:54;6.45;;;4.50;;
8632;SDS011;4354;49.832;10.746;2023-07-02T08:27:21;8.45;;;5.13;;
8632;SDS011;4354;49.832;10.746;2023-07-02T08:29:49;9.98;;;5.43;;
8632;SDS011;4354;49.832;10.746;2023-07-02T08:32:16;8.93;;;5.43;;
8632;SDS011;4354;49.832;10.746;2023-07-02T08:34:43;7.18;;;5.63;;
8632;SDS011;4354;49.832;10.746;2023-07-02T08:37:10;6.80;;;5.18;;
8632;SDS011;4354;49.832;10.746;2023-07-02T08:39:37;8.07;;;5.40;;
8632;SDS011;4354;49.832;10.746;2023-07-02T08:42:06;8.93;;;5.15;;
8632;SDS011;4354;49.832;10.746;2023-07-02T08:44:33;5.78;;;5.15;;
8632;SDS011;4354;49.832;10.746;2023-07-02T08:47:02;7.20;;;5.15;;
8632;SDS011;4354;49.832;10.746;2023-07-02T08:49:29;6.35;;;5.00;;
8632;SDS011;4354;49.832;10.746;2023-07-02T08:51:56;8.60;;;4.70;;
8632;SDS011;4354;49.832;10.746;2023-07-02T08:54:24;7.55;;;5.10;;
8632;SDS011;4354;49.832;10.746;2023-07-02T08:56:51;7.90;;;5.10;;
8632;SDS011;4354;49.832;10.746;2023-07-02T08:59:17;5.88;;;5.07;;
8632;SDS011;4354;49.832;10.746;2023-07-02T09:01:45;5.72;;;4.78;;
8632;SDS011;4354;49.832;10.746;2023-07-02T09:04:16;5.65;;;5.00;;
8632;SDS011;4354;49.832;10.746;2023-07-02T09:06:48;6.35;;;5.47;;
8632;SDS011;4354;49.832;10.746;2023-07-02T09:09:16;5.95;;;5.10;;
8632;SDS011;4354;49.832;10.746;2023-07-02T09:11:49;8.90;;;6.63;;
8632;SDS011;4354;49.832;10.746;2023-07-02T09:14:30;10.98;;;5.57;;
8632;SDS011;4354;49.832;10.746;2023-07-02T09:17:04;8.25;;;6.05;;
8632;SDS011;4354;49.832;10.746;2023-07-02T09:19:35;8.23;;;6.53;;
8632;SDS011;4354;49.832;10.746;2023-07-02T09:22:03;8.43;;;6.22;;
8632;SDS011;4354;49.832;10.746;2023-07-02T09:24:30;6.97;;;6.28;;
8632;SDS011;4354;49.832;10.746;2023-07-02T09:26:59;7.10;;;6.25;;
8632;SDS011;4354;49.832;10.746;2023-07-02T09:29:33;8.45;;;6.05;;
8632;SDS011;4354;49.832;10.746;2023-07-02T09:32:03;9.65;;;6.53;;
8632;SDS011;4354;49.832;10.746;2023-07-02T09:34:37;6.68;;;5.90;;
8632;SDS011;4354;49.832;10.746;2023-07-02T09:37:07;8.60;;;6.22;;
8632;SDS011;4354;49.832;10.746;2023-07-02T09:39:34;9.00;;;6.20;;
8632;SDS011;4354;49.832;10.746;2023-07-02T09:42:05;9.30;;;5.95;;
8632;SDS011;4354;49.832;10.746;2023-07-02T09:44:34;8.10;;;5.82;;
8632;SDS011;4354;49.832;10.746;2023-07-02T09:49:36;8.50;;;5.68;;
8632;SDS011;4354;49.832;10.746;2023-07-02T09:52:08;9.52;;;5.85;;
8632;SDS011;4354;49.832;10.746;2023-07-02T09:54:38;9.88;;;7.05;;
8632;SDS011;4354;49.832;10.746;2023-07-02T09:57:05;8.55;;;6.82;;
8632;SDS011;4354;49.832;10.746;2023-07-02T09:59:33;9.13;;;6.63;;
8632;SDS011;4354;49.832;10.746;2023-07-02T10:02:00;7.50;;;6.50;;
8632;SDS011;4354;49.832;10.746;2023-07-02T10:04:27;11.98;;;7.78;;
8632;SDS011;4354;49.832;10.746;2023-07-02T10:07:05;10.15;;;7.10;;
8632;SDS011;4354;49.832;10.746;2023-07-02T10:09:45;9.45;;;7.40;;
8632;SDS011;4354;49.832;10.746;2023-07-02T10:12:26;9.90;;;7.38;;
8632;SDS011;4354;49.832;10.746;2023-07-02T10:14:55;13.35;;;8.35;;
8632;SDS011;4354;49.832;10.746;2023-07-02T10:17:24;9.13;;;6.85;;
8632;SDS011;4354;49.832;10.746;2023-07-02T10:19:52;10.95;;;7.18;;
8632;SDS011;4354;49.832;10.746;2023-07-02T10:22:20;7.38;;;6.05;;
8632;SDS011;4354;49.832;10.746;2023-07-02T10:24:55;7.05;;;5.70;;
8632;SDS011;4354;49.832;10.746;2023-07-02T10:27:40;8.15;;;5.20;;
8632;SDS011;4354;49.832;10.746;2023-07-02T10:30:09;7.07;;;5.47;;
8632;SDS011;4354;49.832;10.746;2023-07-02T10:32:36;10.52;;;6.13;;
8632;SDS011;4354;49.832;10.746;2023-07-02T10:35:13;7.57;;;6.65;;
8632;SDS011;4354;49.832;10.746;2023-07-02T10:37:41;6.88;;;5.30;;
8632;SDS011;4354;49.832;10.746;2023-07-02T10:40:09;7.40;;;5.75;;
8632;SDS011;4354;49.832;10.746;2023-07-02T10:42:50;11.13;;;5.57;;
8632;SDS011;4354;49.832;10.746;2023-07-02T10:45:18;6.38;;;5.60;;
8632;SDS011;4354;49.832;10.746;2023-07-02T10:47:45;6.80;;;6.10;;
8632;SDS011;4354;49.832;10.746;2023-07-02T10:50:14;6.50;;;5.82;;
8632;SDS011;4354;49.832;10.746;2023-07-02T10:52:45;6.90;;;6.18;;
8632;SDS011;4354;49.832;10.746;2023-07-02T10:55:19;9.57;;;7.07;;
8632;SDS011;4354;49.832;10.746;2023-07-02T10:57:47;8.73;;;7.15;;
8632;SDS011;4354;49.832;10.746;2023-07-02T11:00:17;8.82;;;6.78;;
8632;SDS011;4354;49.832;10.746;2023-07-02T11:02:45;10.32;;;7.55;;
8632;SDS011;4354;49.832;10.746;2023-07-02T11:05:12;11.55;;;8.40;;
8632;SDS011;4354;49.832;10.746;2023-07-02T11:07:41;11.75;;;8.13;;
8632;SDS011;4354;49.832;10.746;2023-07-02T11:10:09;9.20;;;7.93;;
8632;SDS011;4354;49.832;10.746;2023-07-02T11:12:38;8.80;;;6.97;;
8632;SDS011;4354;49.832;10.746;2023-07-02T11:15:08;11.68;;;6.97;;
8632;SDS011;4354;49.832;10.746;2023-07-02T11:17:36;9.52;;;6.90;;
8632;SDS011;4354;49.832;10.746;2023-07-02T11:20:04;7.82;;;6.65;;
8632;SDS011;4354;49.832;10.746;2023-07-02T11:22:32;8.20;;;6.93;;
8632;SDS011;4354;49.832;10.746;2023-07-02T11:25:16;8.02;;;6.22;;
8632;SDS011;4354;49.832;10.746;2023-07-02T11:27:44;7.78;;;6.70;;
8632;SDS011;4354;49.832;10.746;2023-07-02T11:30:11;8.35;;;6.35;;
8632;SDS011;4354;49.832;10.746;2023-07-02T11:32:49;8.48;;;6.45;;
8632;SDS011;4354;49.832;10.746;2023-07-02T11:35:17;8.48;;;6.65;;
8632;SDS011;4354;49.832;10.746;2023-07-02T11:37:45;7.18;;;5.38;;
8632;SDS011;4354;49.832;10.746;2023-07-02T11:40:12;9.00;;;6.47;;
8632;SDS011;4354;49.832;10.746;2023-07-02T11:42:40;10.25;;;6.28;;
8632;SDS011;4354;49.832;10.746;2023-07-02T11:45:07;7.43;;;5.90;;
8632;SDS011;4354;49.832;10.746;2023-07-02T11:47:34;8.20;;;6.25;;
8632;SDS011;4354;49.832;10.746;2023-07-02T11:50:01;7.78;;;6.60;;
8632;SDS011;4354;49.832;10.746;2023-07-02T11:52:48;8.70;;;6.53;;
8632;SDS011;4354;49.832;10.746;2023-07-02T11:55:15;9.15;;;6.38;;
8632;SDS011;4354;49.832;10.746;2023-07-02T11:57:42;8.30;;;6.72;;
8632;SDS011;4354;49.832;10.746;2023-07-02T12:00:09;6.85;;;5.93;;
8632;SDS011;4354;49.832;10.746;2023-07-02T12:02:36;6.70;;;5.93;;
8632;SDS011;4354;49.832;10.746;2023-07-02T12:05:03;9.10;;;5.97;;
8632;SDS011;4354;49.832;10.746;2023-07-02T12:07:34;7.85;;;5.40;;
8632;SDS011;4354;49.832;10.746;2023-07-02T12:10:01;7.97;;;6.07;;
8632;SDS011;4354;49.832;10.746;2023-07-02T12:12:28;7.60;;;5.85;;
8632;SDS011;4354;49.832;10.746;2023-07-02T12:14:55;9.73;;;6.20;;
8632;SDS011;4354;49.832;10.746;2023-07-02T12:17:22;9.35;;;6.00;;
8632;SDS011;4354;49.832;10.746;2023-07-02T12:19:49;10.05;;;6.32;;
8632;SDS011;4354;49.832;10.746;2023-07-02T12:22:15;8.55;;;6.00;;
8632;SDS011;4354;49.832;10.746;2023-07-02T12:24:44;8.50;;;6.10;;
8632;SDS011;4354;49.832;10.746;2023-07-02T12:27:10;8.55;;;6.28;;
8632;SDS011;4354;49.832;10.746;2023-07-02T12:29:37;5.82;;;5.25;;
8632;SDS011;4354;49.832;10.746;2023-07-02T12:32:04;8.18;;;5.93;;
8632;SDS011;4354;49.832;10.746;2023-07-02T12:34:31;7.60;;;5.82;;
8632;SDS011;4354;49.832;10.746;2023-07-02T12:36:58;7.05;;;5.68;;
8632;SDS011;4354;49.832;10.746;2023-07-02T12:39:25;8.00;;;5.82;;
8632;SDS011;4354;49.832;10.746;2023-07-02T12:41:53;6.75;;;5.93;;
8632;SDS011;4354;49.832;10.746;2023-07-02T12:44:20;7.47;;;6.00;;
8632;SDS011;4354;49.832;10.746;2023-07-02T12:46:47;8.77;;;6.25;;
8632;SDS011;4354;49.832;10.746;2023-07-02T12:49:14;7.82;;;6.22;;
8632;SDS011;4354;49.832;10.746;2023-07-02T12:51:41;9.18;;;7.15;;
8632;SDS011;4354;49.832;10.746;2023-07-02T12:54:07;9.25;;;7.32;;
8632;SDS011;4354;49.832;10.746;2023-07-02T12:56:34;9.68;;;7.15;;
8632;SDS011;4354;49.832;10.746;2023-07-02T12:59:01;7.63;;;6.40;;
8632;SDS011;4354;49.832;10.746;2023-07-02T13:01:29;9.15;;;7.00;;
8632;SDS011;4354;49.832;10.746;2023-07-02T13:03:56;7.32;;;6.60;;
8632;SDS011;4354;49.832;10.746;2023-07-02T13:06:23;8.32;;;6.93;;
8632;SDS011;4354;49.832;10.746;2023-07-02T13:08:50;8.40;;;7.15;;
8632;SDS011;4354;49.832;10.746;2023-07-02T13:11:17;12.35;;;7.22;;
8632;SDS011;4354;49.832;10.746;2023-07-02T13:13:44;9.38;;;7.22;;
8632;SDS011;4354;49.832;10.746;2023-07-02T13:16:11;10.10;;;7.35;;
8632;SDS011;4354;49.832;10.746;2023-07-02T13:18:37;10.68;;;8.07;;
8632;SDS011;4354;49.832;10.746;2023-07-02T13:21:04;10.43;;;8.10;;
8632;SDS011;4354;49.832;10.746;2023-07-02T13:23:31;10.27;;;7.70;;
8632;SDS011;4354;49.832;10.746;2023-07-02T13:25:58;10.63;;;8.13;;
8632;SDS011;4354;49.832;10.746;2023-07-02T13:28:25;10.05;;;8.38;;
8632;SDS011;4354;49.832;10.746;2023-07-02T13:30:54;9.30;;;8.25;;
8632;SDS011;4354;49.832;10.746;2023-07-02T13:33:21;12.05;;;9.23;;
8632;SDS011;4354;49.832;10.746;2023-07-02T13:35:48;10.88;;;8.77;;
8632;SDS011;4354;49.832;10.746;2023-07-02T13:38:16;10.38;;;9.02;;
8632;SDS011;4354;49.832;10.746;2023-07-02T13:43:10;11.38;;;9.70;;
8632;SDS011;4354;49.832;10.746;2023-07-02T13:45:37;10.90;;;9.25;;
8632;SDS011;4354;49.832;10.746;2023-07-02T13:48:04;11.80;;;8.63;;
8632;SDS011;4354;49.832;10.746;2023-07-02T13:50:31;12.93;;;9.13;;
8632;SDS011;4354;49.832;10.746;2023-07-02T13:52:58;12.93;;;10.00;;
8632;SDS011;4354;49.832;10.746;2023-07-02T13:55:25;12.35;;;9.82;;
8632;SDS011;4354;49.832;10.746;2023-07-02T13:57:54;14.77;;;10.02;;
8632;SDS011;4354;49.832;10.746;2023-07-02T14:00:23;11.07;;;9.25;;
8632;SDS011;4354;49.832;10.746;2023-07-02T14:02:50;13.73;;;9.20;;
8632;SDS011;4354;49.832;10.746;2023-07-02T14:05:17;12.80;;;9.32;;
8632;SDS011;4354;49.832;10.746;2023-07-02T14:07:44;10.18;;;8.32;;
8632;SDS011;4354;49.832;10.746;2023-07-02T14:10:12;10.68;;;8.68;;
8632;SDS011;4354;49.832;10.746;2023-07-02T14:12:39;12.98;;;8.80;;
8632;SDS011;4354;49.832;10.746;2023-07-02T14:15:07;11.25;;;9.05;;
8632;SDS011;4354;49.832;10.746;2023-07-02T14:17:35;10.68;;;8.73;;
8632;SDS011;4354;49.832;10.746;2023-07-02T14:20:02;14.10;;;9.15;;
8632;SDS011;4354;49.832;10.746;2023-07-02T14:22:30;10.43;;;8.43;;
8632;SDS011;4354;49.832;10.746;2023-07-02T14:24:57;13.95;;;9.52;;
8632;SDS011;4354;49.832;10.746;2023-07-02T14:27:24;11.75;;;9.07;;
8632;SDS011;4354;49.832;10.746;2023-07-02T14:29:51;16.42;;;9.23;;
8632;SDS011;4354;49.832;10.746;2023-07-02T14:32:18;13.68;;;9.27;;
8632;SDS011;4354;49.832;10.746;2023-07-02T14:34:45;12.32;;;10.15;;
8632;SDS011;4354;49.832;10.746;2023-07-02T14:37:11;14.05;;;9.73;;
8632;SDS011;4354;49.832;10.746;2023-07-02T14:39:38;13.77;;;10.38;;
8632;SDS011;4354;49.832;10.746;2023-07-02T14:42:10;11.95;;;9.32;;
8632;SDS011;4354;49.832;10.746;2023-07-02T14:44:37;14.75;;;10.10;;
8632;SDS011;4354;49.832;10.746;2023-07-02T14:47:04;16.38;;;10.73;;
8632;SDS011;4354;49.832;10.746;2023-07-02T14:49:31;13.40;;;10.27;;
8632;SDS011;4354;49.832;10.746;2023-07-02T14:52:01;11.90;;;10.00;;
8632;SDS011;4354;49.832;10.746;2023-07-02T14:54:28;15.45;;;10.48;;
8632;SDS011;4354;49.832;10.746;2023-07-02T14:56:55;13.07;;;10.35;;
8632;SDS011;4354;49.832;10.746;2023-07-02T14:59:21;14.27;;;10.43;;
8632;SDS011;4354;49.832;10.746;2023-07-02T15:01:48;13.40;;;10.73;;
8632;SDS011;4354;49.832;10.746;2023-07-02T15:04:15;13.10;;;10.32;;
8632;SDS011;4354;49.832;10.746;2023-07-02T15:06:42;12.23;;;10.23;;
8632;SDS011;4354;49.832;10.746;2023-07-02T15:09:09;12.65;;;10.23;;